Terminal Aerodrome Forecast
Issued by NWS Cleveland, OH

Home | Current Version | Previous Version | Graphics & Text | Print | Product List | Glossary On
Versions: 1 2 3 4 5 6 7 8 9 10 11 12 13 14 15 16 17 18 19 20 21 22
000
FTUS41 KCLE 131700 RRA
TAFCAK
TAF
KCAK 131741Z 1318/1418 30012G20KT P6SM SCT025 OVC040
      TEMPO 1318/1321 BKN025
     FM140000 01005KT P6SM BKN040
     FM141500 15005KT P6SM SCT040=

USA.gov is the U.S. government's official web portal to all federal, state and local government web resources and services.